Scottsville, Virginia
Current Conditions -  °F | °C
As of 12:53 AM on Thursday 29 Jan 2015 (Local Time) from KCHO Reporting Station
Clear Clear  
Wind Chill: 24°   Ceiling: Unl
Heat Index: 24°   Visibility: 10mi
Dew Point:   Wind: 0mph
Humidity: 46%   Direction: NA
Pressure: 30.31"   Gusts: NA
Location:  37.8°N, 78.5°W
Report Text: KCHO 290553Z AUTO 00000KT 10SM CLR M04/M14 A3031 RMK AO2 SLP268 T10441144 10006 21056 58000
Loading
Personal Weather Stations






























Interactive Weather Map New forecast layout! Learn more

10-Day Weather Forecast

Advertisements
Track Severe Weather on mobile